createdAt,value
2023-03-17T05:47:48.716Z,1.10
2023-03-17T05:50:17.230Z,1.00
2023-03-17T05:52:45.265Z,0.90
2023-03-17T05:55:13.408Z,1.00
2023-03-17T05:57:41.731Z,1.02
2023-03-17T06:00:13.449Z,2.80
2023-03-17T06:02:41.918Z,3.80
2023-03-17T06:05:11.651Z,3.47
2023-03-17T06:07:51.781Z,3.80
2023-03-17T06:10:22.872Z,4.78
2023-03-17T06:12:50.932Z,4.00
2023-03-17T06:15:19.198Z,3.40
2023-03-17T06:17:47.159Z,1.80
2023-03-17T06:20:16.780Z,1.60
2023-03-17T06:23:02.396Z,1.15
2023-03-17T06:25:32.029Z,1.30
2023-03-17T06:28:02.364Z,1.13
2023-03-17T06:30:31.451Z,2.20
2023-03-17T06:33:00.255Z,1.20
2023-03-17T06:35:30.792Z,3.28
2023-03-17T06:37:59.018Z,2.30
2023-03-17T06:40:26.977Z,1.85
2023-03-17T06:42:54.941Z,1.63
2023-03-17T06:45:22.955Z,1.80
2023-03-17T06:47:51.149Z,2.17
2023-03-17T06:50:19.221Z,2.72
2023-03-17T06:52:48.515Z,2.85
2023-03-17T06:55:17.508Z,3.50
2023-03-17T06:57:45.450Z,3.58
2023-03-17T07:00:14.741Z,3.72
2023-03-17T07:02:43.014Z,4.50
2023-03-17T07:05:12.671Z,4.95
2023-03-17T07:07:41.133Z,6.30
2023-03-17T07:10:13.741Z,7.47
2023-03-17T07:12:41.697Z,6.30
2023-03-17T07:15:11.372Z,5.57
2023-03-17T07:17:39.382Z,3.67
2023-03-17T07:20:09.676Z,3.25
2023-03-17T07:22:37.596Z,3.60
2023-03-17T07:25:06.445Z,3.42
2023-03-17T07:27:35.796Z,4.07
2023-03-17T07:30:04.970Z,3.80
2023-03-17T07:32:33.246Z,4.78
2023-03-17T07:35:01.208Z,6.07
2023-03-17T07:37:29.366Z,5.20
2023-03-17T07:39:57.309Z,4.68
2023-03-17T07:42:25.276Z,4.10
2023-03-17T07:44:54.668Z,4.78
2023-03-17T15:02:37.789Z,2.00
2023-03-17T15:05:12.638Z,2.00
2023-03-17T15:07:42.897Z,1.58
2023-03-17T15:10:17.008Z,1.48
2023-03-17T15:12:47.267Z,1.52
2023-03-17T15:15:23.690Z,1.45
2023-03-17T15:17:58.614Z,1.25
2023-03-17T15:20:27.055Z,1.80
2023-03-17T15:22:59.135Z,1.65
2023-03-17T15:25:29.250Z,1.63
2023-03-17T15:27:57.404Z,1.50
2023-03-17T15:30:29.456Z,1.50
2023-03-17T15:33:02.964Z,1.45
2023-03-17T15:35:31.130Z,1.60
2023-03-17T15:37:59.106Z,1.70
2023-03-17T15:40:27.082Z,1.80
2023-03-17T15:42:55.100Z,1.90
2023-03-17T15:45:23.010Z,1.55
2023-03-17T15:47:50.981Z,1.50
2023-03-17T15:50:25.370Z,1.60
2023-03-17T15:52:55.783Z,2.10
2023-03-17T15:55:25.580Z,1.60
2023-03-17T15:57:55.520Z,1.52
2023-03-17T16:00:26.513Z,1.80
2023-03-17T16:02:56.206Z,1.45
2023-03-17T16:05:27.578Z,1.55
2023-03-17T16:07:55.620Z,1.83
2023-03-17T16:10:25.620Z,1.92
2023-03-17T16:12:53.849Z,1.90
2023-03-17T16:15:23.908Z,2.03
2023-03-17T16:17:54.727Z,2.10
2023-03-17T16:20:27.084Z,5.65
2023-03-17T16:22:57.018Z,4.47
2023-03-17T16:25:27.924Z,5.07
2023-03-17T16:27:57.278Z,3.30
2023-03-17T16:30:26.912Z,5.03
2023-03-17T16:32:55.472Z,2.83
2023-03-17T16:35:25.540Z,2.97
2023-03-17T16:37:55.120Z,2.58
2023-03-17T16:40:25.464Z,2.83
2023-03-17T16:42:54.088Z,3.22
2023-03-17T16:45:27.444Z,3.20
2023-03-17T16:47:56.501Z,3.80
2023-03-17T16:50:26.662Z,3.47
2023-03-17T16:52:56.705Z,4.50
2023-03-17T16:55:29.041Z,3.80
2023-03-17T16:58:00.716Z,4.20
2023-03-17T17:00:30.938Z,3.95
2023-03-17T17:02:59.616Z,4.18
2023-03-17T17:05:29.241Z,3.72
2023-03-17T17:07:59.203Z,4.50
2023-03-17T17:10:30.683Z,4.57
2023-03-17T17:12:58.855Z,4.43
2023-03-17T17:15:27.000Z,4.18
2023-03-17T17:17:57.867Z,4.03
2023-03-17T17:20:28.958Z,4.15
2023-03-17T17:22:59.052Z,3.75
2023-03-17T17:25:28.037Z,4.00
2023-03-17T17:27:57.186Z,4.18
2023-03-17T17:30:28.247Z,4.22
2023-03-17T17:32:57.921Z,4.20
2023-03-17T17:35:27.795Z,4.10
2023-03-17T17:37:56.178Z,4.18
2023-03-17T17:40:26.128Z,3.83
2023-03-17T17:42:55.823Z,3.67
2023-03-17T17:45:23.836Z,3.17
2023-03-17T17:47:52.424Z,4.72
2023-03-17T17:50:24.499Z,3.30
2023-03-17T17:52:52.473Z,2.53
2023-03-17T17:55:20.834Z,2.20
2023-03-17T17:57:52.445Z,2.38
2023-03-17T18:00:21.632Z,2.60
2023-03-17T18:02:49.634Z,2.10
2023-03-17T18:05:17.746Z,2.70
2023-03-17T18:07:45.629Z,6.55
2023-03-17T18:10:18.399Z,4.70
2023-03-17T18:12:46.659Z,2.50
2023-03-17T18:15:16.898Z,2.85
2023-03-17T18:17:45.165Z,1.70
2023-03-17T18:20:15.405Z,1.85
2023-03-17T18:22:43.824Z,2.00
2023-03-17T18:25:14.346Z,1.95
2023-03-17T18:27:43.785Z,1.80
2023-03-17T18:30:14.481Z,1.63
2023-03-17T18:32:45.775Z,1.67
2023-03-17T18:35:17.840Z,1.60
2023-03-17T18:37:46.007Z,1.75
2023-03-17T18:40:18.443Z,1.63
2023-03-17T18:42:47.399Z,1.60
2023-03-17T18:45:15.882Z,1.80
2023-03-17T18:47:45.277Z,1.80
2023-03-17T18:50:15.502Z,1.80
2023-03-17T18:52:44.887Z,1.70
2023-03-17T18:55:15.010Z,2.00
2023-03-17T18:57:44.722Z,2.03
2023-03-17T19:00:16.292Z,1.60
2023-03-17T19:02:46.249Z,1.40
2023-03-17T19:05:15.359Z,1.75
2023-03-17T19:07:43.420Z,2.17
2023-03-17T19:10:13.924Z,3.75
2023-03-17T19:12:42.472Z,5.55
2023-03-17T19:15:12.531Z,5.10
2023-03-17T19:17:40.698Z,2.60
2023-03-17T19:20:12.345Z,2.22
2023-03-17T19:22:40.562Z,2.13
2023-03-17T19:25:09.700Z,1.70
2023-03-17T19:27:37.905Z,2.15
2023-03-17T19:30:07.106Z,1.92
2023-03-17T19:32:35.137Z,1.88
2023-03-17T19:35:03.180Z,1.52
2023-03-17T19:37:32.503Z,1.50
2023-03-17T19:40:01.383Z,1.85
2023-03-17T19:42:29.276Z,1.70
2023-03-17T19:44:57.294Z,1.80
2023-03-17T19:47:25.188Z,1.60
2023-03-17T19:49:53.749Z,1.70
2023-03-17T19:52:21.896Z,1.60
2023-03-17T19:54:51.246Z,1.65
2023-03-17T19:57:20.805Z,1.80
2023-03-17T19:59:48.810Z,1.85
2023-03-17T20:02:17.672Z,1.60
2023-03-17T20:04:45.714Z,1.70
2023-03-17T20:07:13.741Z,1.80
2023-03-17T20:09:42.406Z,2.08
2023-03-17T20:12:11.725Z,1.73
2023-03-17T20:14:39.706Z,2.00
2023-03-17T20:17:07.721Z,17.23
2023-03-17T20:19:39.035Z,22.13
2023-03-17T20:22:07.273Z,10.77
2023-03-17T20:24:35.531Z,7.78
2023-03-17T20:27:03.865Z,3.90
2023-03-17T20:29:33.084Z,4.90
2023-03-17T20:32:02.731Z,3.22
2023-03-17T20:34:31.826Z,2.10
2023-03-17T20:36:59.781Z,2.50
2023-03-17T20:39:27.732Z,2.35
2023-03-17T20:41:55.805Z,2.50
2023-03-17T20:44:24.106Z,2.33
2023-03-17T20:46:54.331Z,2.25
2023-03-17T20:49:23.403Z,2.13
2023-03-17T20:51:51.628Z,2.58
2023-03-17T20:54:19.983Z,2.00
2023-03-17T20:56:52.293Z,2.03
2023-03-17T20:59:20.640Z,2.10
